MSC Cordoba — A8OF8 — position and weather

sailwx.info

Track history (hours):
 
Tides and Currents Weather Stations Pressure Air Temp Water Temp Dewpoint Dewpoint Depression Visibility Wind Speed Wind Dir Waves Ship Positions

MSC Cordoba

Last reported at 2017-May-29 17:28 UTC. Time now 2017-May-30 05:19 UTC.
Position N 39°29' W 009°50'.

Length 275 m; draft 10.5 m.

Type: Ship (hazmat cat A). MMSI: 636091473.

Date/timePositionNaut miles runAvg speedWind from/ knotsBaromVisibWave heightAir tempDewpointWater temp
2017-May-29 17:28N 39°29' W 009°50'817.8
2017-May-29 17:00N 39°21' W 009°51'917.8
2017-May-29 16:30N 39°12' W 009°51'917.5
2017-May-29 16:00N 39°03' W 009°51'917.8
2017-May-29 15:30N 38°54' W 009°51'917.6
2017-May-29 15:00N 38°45' W 009°51'917.5
2017-May-29 14:30N 38°37' W 009°50'1717.1
2017-May-29 13:30N 38°20' W 009°45'917.3
2017-May-29 13:00N 38°12' W 009°42'917.2
2017-May-29 12:30N 38°03' W 009°40'1517.4
2017-May-29 11:38N 37°48' W 009°36'217.4
2017-May-29 11:30N 37°46' W 009°36'917.0
2017-May-29 11:00N 37°38' W 009°33'6515.8
2017-May-29 06:55N 36°41' W 008°54'717.4
2017-May-29 06:30N 36°39' W 008°46'917.5
2017-May-29 06:00N 36°36' W 008°35'917.4
2017-May-29 05:30N 36°34' W 008°25'12917.4
2017-May-28 22:05N 35°58' W 005°51'416.8
2017-May-28 21:52N 35°58' W 005°47'715.9
2017-May-28 21:25N 35°57' W 005°38'614.5
2017-May-28 21:00N 35°59' W 005°31'713.6
2017-May-28 20:31N 36°01' W 005°23'815.0
2017-May-28 20:00N 36°02' W 005°14'916.3
2017-May-28 19:29N 36°03' W 005°03'21516.2
2017-May-28 06:13N 36°36' W 000°40'2917.5
2017-May-28 04:34N 36°41' W 000°04'417.5
2017-May-28 04:21N 36°41' E 000°00'717.7
2017-May-28 03:57N 36°42' E 000°09'818.1
2017-May-28 03:31N 36°43' E 000°19'918.2
2017-May-28 03:00N 36°45' E 000°30'1118.2
2017-May-28 02:24N 36°46' E 000°44'718.2
2017-May-28 02:00N 36°47' E 000°53'1018.3
2017-May-28 01:29N 36°48' E 001°05'918.2
2017-May-28 00:58N 36°49' E 001°17'2618.3
2017-May-27 23:32N 36°52' E 001°49'7418.6
2017-May-27 19:34N 37°03' E 003°21'219.3
2017-May-27 19:29N 37°03' E 003°23'1418.5
2017-May-27 18:43N 37°04' E 003°40'518.8
2017-May-27 18:27N 37°05' E 003°47'3618.4
2017-May-27 16:30N 37°10' E 004°31'2218.2
2017-May-27 15:16N 37°14' E 004°59'718.2
2017-May-27 14:54N 37°15' E 005°07'818.1
2017-May-27 14:29N 37°16' E 005°17'1815.9
2017-May-27 13:22N 37°18' E 005°39'514.9
2017-May-27 13:00N 37°19' E 005°46'1014.7
2017-May-27 12:21N 37°20' E 005°58'514.5
2017-May-27 12:00N 37°20' E 006°04'714.4
2017-May-27 11:29N 37°21' E 006°13'814.5
2017-May-27 10:58N 37°22' E 006°23'1414.2
2017-May-27 09:59N 37°24' E 006°40'1213.7
2017-May-27 09:07N 37°25' E 006°55'413.8
2017-May-27 08:50N 37°26' E 006°60'1014.2
2017-May-27 08:07N 37°28' E 007°12'314.2
2017-May-27 07:53N 37°28' E 007°16'27617.2
2017-May-26 15:50N 36°53' E 012°60'617.8
2017-May-26 15:30N 36°51' E 013°07'917.6
2017-May-26 15:00N 36°48' E 013°17'2616.6
2017-May-26 13:27N 36°41' E 013°48'613.7
2017-May-26 13:00N 36°39' E 013°55'713.5
2017-May-26 12:30N 36°37' E 014°03'713.6
2017-May-26 12:00N 36°35' E 014°11'713.7
2017-May-26 11:30N 36°32' E 014°19'713.7
2017-May-26 11:00N 36°30' E 014°27'713.5
2017-May-26 10:30N 36°28' E 014°35'713.4
2017-May-26 10:01N 36°27' E 014°44'  
2017-May-20 12:26N 37°29' E 024°20'920.3
2017-May-20 12:00N 37°23' E 024°13'1120.2
2017-May-20 11:27N 37°14' E 024°04'920.2
2017-May-20 11:01N 37°07' E 023°56'2420.2
2017-May-20 09:49N 36°49' E 023°37'620.3
2017-May-20 09:30N 36°44' E 023°32'  
Track history (hours):
 
Tides and Currents Weather Stations Pressure Air Temp Water Temp Dewpoint Dewpoint Depression Visibility Wind Speed Wind Dir Waves Ship Positions

MSC Cordoba

Last reported at 2017-May-29 17:28 UTC. Time now 2017-May-30 05:19 UTC.
Position N 39°29' W 009°50'.

Length 275 m; draft 10.5 m.

Type: Ship (hazmat cat A). MMSI: 636091473.

Date/timePositionNaut miles runAvg speedWind from/ knotsBaromVisibWave heightAir tempDewpointWater temp
2017-May-29 17:28N 39°29' W 009°50'817.8
2017-May-29 17:00N 39°21' W 009°51'917.8
2017-May-29 16:30N 39°12' W 009°51'917.5
2017-May-29 16:00N 39°03' W 009°51'917.8
2017-May-29 15:30N 38°54' W 009°51'917.6
2017-May-29 15:00N 38°45' W 009°51'917.5
2017-May-29 14:30N 38°37' W 009°50'1717.1
2017-May-29 13:30N 38°20' W 009°45'917.3
2017-May-29 13:00N 38°12' W 009°42'917.2
2017-May-29 12:30N 38°03' W 009°40'1517.4
2017-May-29 11:38N 37°48' W 009°36'217.4
2017-May-29 11:30N 37°46' W 009°36'917.0
2017-May-29 11:00N 37°38' W 009°33'6515.8
2017-May-29 06:55N 36°41' W 008°54'717.4
2017-May-29 06:30N 36°39' W 008°46'917.5
2017-May-29 06:00N 36°36' W 008°35'917.4
2017-May-29 05:30N 36°34' W 008°25'12917.4
2017-May-28 22:05N 35°58' W 005°51'416.8
2017-May-28 21:52N 35°58' W 005°47'715.9
2017-May-28 21:25N 35°57' W 005°38'614.5
2017-May-28 21:00N 35°59' W 005°31'713.6
2017-May-28 20:31N 36°01' W 005°23'815.0
2017-May-28 20:00N 36°02' W 005°14'916.3
2017-May-28 19:29N 36°03' W 005°03'21516.2
2017-May-28 06:13N 36°36' W 000°40'2917.5
2017-May-28 04:34N 36°41' W 000°04'417.5
2017-May-28 04:21N 36°41' E 000°00'717.7
2017-May-28 03:57N 36°42' E 000°09'818.1
2017-May-28 03:31N 36°43' E 000°19'918.2
2017-May-28 03:00N 36°45' E 000°30'1118.2
2017-May-28 02:24N 36°46' E 000°44'718.2
2017-May-28 02:00N 36°47' E 000°53'1018.3
2017-May-28 01:29N 36°48' E 001°05'918.2
2017-May-28 00:58N 36°49' E 001°17'2618.3
2017-May-27 23:32N 36°52' E 001°49'7418.6
2017-May-27 19:34N 37°03' E 003°21'219.3
2017-May-27 19:29N 37°03' E 003°23'1418.5
2017-May-27 18:43N 37°04' E 003°40'518.8
2017-May-27 18:27N 37°05' E 003°47'3618.4
2017-May-27 16:30N 37°10' E 004°31'2218.2
2017-May-27 15:16N 37°14' E 004°59'718.2
2017-May-27 14:54N 37°15' E 005°07'818.1
2017-May-27 14:29N 37°16' E 005°17'1815.9
2017-May-27 13:22N 37°18' E 005°39'514.9
2017-May-27 13:00N 37°19' E 005°46'1014.7
2017-May-27 12:21N 37°20' E 005°58'514.5
2017-May-27 12:00N 37°20' E 006°04'714.4
2017-May-27 11:29N 37°21' E 006°13'814.5
2017-May-27 10:58N 37°22' E 006°23'1414.2
2017-May-27 09:59N 37°24' E 006°40'1213.7
2017-May-27 09:07N 37°25' E 006°55'413.8
2017-May-27 08:50N 37°26' E 006°60'1014.2
2017-May-27 08:07N 37°28' E 007°12'314.2
2017-May-27 07:53N 37°28' E 007°16'27617.2
2017-May-26 15:50N 36°53' E 012°60'617.8
2017-May-26 15:30N 36°51' E 013°07'917.6
2017-May-26 15:00N 36°48' E 013°17'2616.6
2017-May-26 13:27N 36°41' E 013°48'613.7
2017-May-26 13:00N 36°39' E 013°55'713.5
2017-May-26 12:30N 36°37' E 014°03'713.6
2017-May-26 12:00N 36°35' E 014°11'713.7
2017-May-26 11:30N 36°32' E 014°19'713.7
2017-May-26 11:00N 36°30' E 014°27'713.5
2017-May-26 10:30N 36°28' E 014°35'713.4
2017-May-26 10:01N 36°27' E 014°44'  
2017-May-20 12:26N 37°29' E 024°20'920.3
2017-May-20 12:00N 37°23' E 024°13'1120.2
2017-May-20 11:27N 37°14' E 024°04'920.2
2017-May-20 11:01N 37°07' E 023°56'2420.2
2017-May-20 09:49N 36°49' E 023°37'620.3
2017-May-20 09:30N 36°44' E 023°32'  

Dump ship's entire track history